Time;durP1;ratioP1;P1;durP2;ratioP2;P2;SDS_P1;SDS_P2;PMS_P1;PMS_P2;Temp;Humidity;BMP_temperature;BMP_pressure;BME280_temperature;BME280_humidity;BME280_pressure;Samples;Min_cycle;Max_cycle;Signal;HPM_P1;HPM_P2
2023/01/19 00:01:18;;;;;;;23.15;16.10;;;;;;;;;;5028211;28;20033;-54
2023/01/19 00:03:44;;;;;;;25.13;16.83;;;;;;;;;;5030543;28;20021;-56
2023/01/19 00:06:11;;;;;;;27.33;18.83;;;;;;;;;;5030764;28;20025;-56
2023/01/19 00:08:37;;;;;;;25.85;17.27;;;;;;;;;;5029818;28;20021;-55
2023/01/19 00:11:04;;;;;;;25.80;17.75;;;;;;;;;;5029823;28;20498;-54
2023/01/19 00:13:30;;;;;;;27.80;18.33;;;;;;;;;;5029848;28;20036;-57
2023/01/19 00:15:56;;;;;;;24.70;18.80;;;;;;;;;;5030258;28;20033;-56
2023/01/19 00:18:22;;;;;;;24.30;16.80;;;;;;;;;;5045264;28;20026;-57
2023/01/19 00:20:48;;;;;;;25.17;17.13;;;;;;;;;;5032171;28;20033;-60
2023/01/19 00:23:15;;;;;;;25.33;17.73;;;;;;;;;;5034555;28;20040;-53
2023/01/19 00:25:42;;;;;;;28.17;18.58;;;;;;;;;;5035550;28;20056;-53
2023/01/19 00:28:09;;;;;;;23.77;17.17;;;;;;;;;;5050519;28;20029;-52
2023/01/19 00:30:35;;;;;;;28.25;16.48;;;;;;;;;;5035444;28;20052;-58
2023/01/19 00:33:01;;;;;;;25.23;18.60;;;;;;;;;;5035421;28;20029;-57
2023/01/19 00:35:27;;;;;;;31.25;18.92;;;;;;;;;;5035173;28;20037;-56
2023/01/19 00:37:53;;;;;;;26.02;17.48;;;;;;;;;;5035187;28;20028;-58
2023/01/19 00:40:19;;;;;;;25.52;17.13;;;;;;;;;;5035112;28;20029;-57
2023/01/19 00:42:47;;;;;;;30.85;17.08;;;;;;;;;;5035407;28;20596;-54
2023/01/19 00:45:14;;;;;;;25.50;16.38;;;;;;;;;;5035176;28;20064;-54
2023/01/19 00:47:40;;;;;;;26.07;19.03;;;;;;;;;;5035374;28;20026;-55
2023/01/19 00:50:08;;;;;;;30.80;17.17;;;;;;;;;;5050520;28;20107;-53
2023/01/19 00:52:34;;;;;;;26.48;17.02;;;;;;;;;;5035182;28;20033;-57
2023/01/19 00:55:00;;;;;;;28.48;17.25;;;;;;;;;;5034720;28;20025;-56
2023/01/19 00:57:26;;;;;;;26.73;16.77;;;;;;;;;;5034740;28;20536;-55
2023/01/19 00:59:52;;;;;;;29.90;19.08;;;;;;;;;;5034550;28;20036;-57
2023/01/19 01:02:18;;;;;;;27.25;19.10;;;;;;;;;;5049964;28;20119;-56
2023/01/19 01:04:44;;;;;;;31.70;17.88;;;;;;;;;;5034504;28;20052;-59
2023/01/19 01:07:10;;;;;;;26.60;17.85;;;;;;;;;;5050047;28;20021;-59
2023/01/19 01:09:36;;;;;;;28.88;19.55;;;;;;;;;;5034511;28;20094;-56
2023/01/19 01:12:02;;;;;;;25.58;17.45;;;;;;;;;;5034605;28;20022;-56
2023/01/19 01:14:28;;;;;;;25.95;18.15;;;;;;;;;;5034193;28;20090;-57
2023/01/19 01:16:54;;;;;;;29.52;19.52;;;;;;;;;;5049902;28;20029;-56
2023/01/19 01:19:20;;;;;;;24.42;16.63;;;;;;;;;;5034050;28;20083;-55
2023/01/19 01:21:46;;;;;;;25.98;16.73;;;;;;;;;;5034268;28;20083;-55
2023/01/19 01:24:12;;;;;;;28.15;17.55;;;;;;;;;;5034043;28;20026;-58
2023/01/19 01:26:38;;;;;;;27.38;17.67;;;;;;;;;;5034316;28;20026;-56
2023/01/19 01:29:05;;;;;;;25.60;17.48;;;;;;;;;;5034158;28;20033;-58
2023/01/19 01:31:31;;;;;;;27.15;18.52;;;;;;;;;;5033267;28;20397;-56
2023/01/19 01:33:57;;;;;;;26.88;19.05;;;;;;;;;;5034008;28;20030;-55
2023/01/19 01:36:23;;;;;;;25.95;18.35;;;;;;;;;;5049214;28;20029;-57
2023/01/19 01:38:49;;;;;;;26.92;17.77;;;;;;;;;;5033860;28;20025;-54
2023/01/19 01:41:15;;;;;;;30.13;21.20;;;;;;;;;;5034033;28;20105;-57
2023/01/19 01:43:44;;;;;;;23.27;17.08;;;;;;;;;;5033668;28;20108;-57
2023/01/19 01:46:10;;;;;;;27.83;19.63;;;;;;;;;;5033973;28;20370;-55
2023/01/19 01:48:37;;;;;;;26.33;18.35;;;;;;;;;;5033831;28;20033;-55
2023/01/19 01:51:24;;;;;;;29.02;18.80;;;;;;;;;;5049314;28;20022;-54
2023/01/19 01:53:56;;;;;;;28.40;19.80;;;;;;;;;;5033552;28;20056;-55
2023/01/19 01:56:25;;;;;;;28.95;17.65;;;;;;;;;;5033695;28;20035;-56
2023/01/19 01:58:51;;;;;;;27.83;19.58;;;;;;;;;;5048969;28;20029;-54
2023/01/19 02:04:02;;;;;;;24.73;17.63;;;;;;;;;;5033341;28;20037;-56
2023/01/19 02:06:28;;;;;;;26.15;17.80;;;;;;;;;;5033450;28;20026;-58
2023/01/19 02:14:37;;;;;;;28.98;18.42;;;;;;;;;;5033235;28;20036;-57
2023/01/19 02:17:04;;;;;;;28.48;17.33;;;;;;;;;;5033261;28;20025;-54
2023/01/19 02:19:34;;;;;;;33.95;20.08;;;;;;;;;;5033112;28;20021;-56
2023/01/19 02:22:22;;;;;;;28.25;17.27;;;;;;;;;;5033097;28;20109;-58
2023/01/19 02:24:48;;;;;;;30.65;20.58;;;;;;;;;;5032834;28;20091;-58
2023/01/19 02:27:15;;;;;;;28.58;18.95;;;;;;;;;;5033029;28;20029;-55
2023/01/19 02:29:41;;;;;;;32.40;20.23;;;;;;;;;;5032484;28;20030;-58
2023/01/19 02:32:07;;;;;;;29.98;21.00;;;;;;;;;;5032827;28;20025;-58
2023/01/19 02:34:34;;;;;;;26.15;18.02;;;;;;;;;;5032815;28;20083;-52
2023/01/19 02:37:06;;;;;;;29.40;17.52;;;;;;;;;;5033089;28;20057;-56
2023/01/19 02:39:42;;;;;;;28.17;19.15;;;;;;;;;;5031598;28;20036;-54
2023/01/19 02:42:11;;;;;;;28.60;19.67;;;;;;;;;;5032929;28;20022;-57
2023/01/19 02:44:38;;;;;;;25.40;16.90;;;;;;;;;;5032638;28;20032;-55
2023/01/19 02:47:04;;;;;;;22.70;14.93;;;;;;;;;;5033157;28;20107;-58
2023/01/19 02:49:30;;;;;;;25.15;16.98;;;;;;;;;;5033021;28;20028;-57
2023/01/19 02:51:57;;;;;;;27.00;16.42;;;;;;;;;;5032951;28;20486;-56
2023/01/19 02:54:32;;;;;;;31.15;19.83;;;;;;;;;;5032530;28;20512;-54
2023/01/19 02:57:16;;;;;;;26.25;17.75;;;;;;;;;;5032779;28;20116;-53
2023/01/19 02:59:48;;;;;;;27.75;17.23;;;;;;;;;;5032538;28;20052;-59
2023/01/19 03:02:26;;;;;;;24.35;16.77;;;;;;;;;;5031369;28;20390;-52
2023/01/19 03:05:12;;;;;;;26.00;17.92;;;;;;;;;;5031041;28;20120;-51
2023/01/19 03:07:38;;;;;;;23.55;15.77;;;;;;;;;;5032587;28;20459;-53
2023/01/19 03:10:14;;;;;;;26.60;18.25;;;;;;;;;;5032462;28;20053;-55
2023/01/19 03:12:44;;;;;;;34.88;20.10;;;;;;;;;;5032354;28;20022;-55
2023/01/19 03:15:17;;;;;;;26.88;17.70;;;;;;;;;;5035365;28;20493;-54
2023/01/19 03:17:45;;;;;;;27.08;19.25;;;;;;;;;;5046653;28;20033;-58
2023/01/19 03:20:12;;;;;;;28.27;19.23;;;;;;;;;;5041236;28;20040;-56
2023/01/19 03:22:39;;;;;;;27.10;17.92;;;;;;;;;;5036114;28;20120;-60
2023/01/19 03:25:05;;;;;;;27.98;20.70;;;;;;;;;;5030960;28;20026;-59
2023/01/19 03:27:33;;;;;;;33.75;20.90;;;;;;;;;;5030900;28;20018;-56
2023/01/19 03:30:01;;;;;;;22.77;16.57;;;;;;;;;;5032070;28;20026;-57
2023/01/19 03:32:36;;;;;;;30.25;19.63;;;;;;;;;;5032062;28;20103;-54
2023/01/19 03:35:04;;;;;;;34.58;20.38;;;;;;;;;;5031923;28;20022;-55
2023/01/19 03:37:31;;;;;;;30.48;19.17;;;;;;;;;;5032170;28;20026;-56
2023/01/19 03:39:57;;;;;;;28.13;18.63;;;;;;;;;;5030645;28;20029;-57
2023/01/19 03:42:24;;;;;;;26.98;18.30;;;;;;;;;;5031823;28;20109;-55
2023/01/19 03:44:51;;;;;;;29.08;19.55;;;;;;;;;;5031716;28;20050;-52
2023/01/19 03:47:17;;;;;;;30.25;19.75;;;;;;;;;;5031985;28;20087;-56
2023/01/19 03:49:44;;;;;;;25.65;16.90;;;;;;;;;;5031773;28;20025;-57
2023/01/19 03:52:11;;;;;;;27.50;18.65;;;;;;;;;;5030647;28;20405;-53
2023/01/19 03:54:37;;;;;;;26.40;17.20;;;;;;;;;;5031099;28;20112;-55
2023/01/19 03:57:03;;;;;;;23.80;16.38;;;;;;;;;;5031831;28;20025;-55
2023/01/19 03:59:29;;;;;;;25.77;18.00;;;;;;;;;;5031407;28;20021;-55
2023/01/19 04:01:55;;;;;;;28.17;17.98;;;;;;;;;;5031658;28;20073;-57
2023/01/19 04:04:21;;;;;;;26.95;16.98;;;;;;;;;;5031325;28;20482;-57
2023/01/19 04:06:47;;;;;;;29.70;18.52;;;;;;;;;;5030336;28;20037;-58
2023/01/19 04:09:13;;;;;;;28.70;16.70;;;;;;;;;;5031534;28;20367;-57
2023/01/19 04:11:39;;;;;;;27.25;17.17;;;;;;;;;;5031585;28;20028;-58
2023/01/19 04:14:05;;;;;;;28.75;18.85;;;;;;;;;;5030037;28;20076;-60
2023/01/19 04:16:31;;;;;;;27.35;15.75;;;;;;;;;;5031538;28;20049;-57
2023/01/19 04:18:57;;;;;;;24.98;16.98;;;;;;;;;;5031280;28;20398;-58
2023/01/19 04:21:23;;;;;;;27.02;17.42;;;;;;;;;;5031502;28;20026;-58
2023/01/19 04:23:50;;;;;;;29.92;18.08;;;;;;;;;;5029936;28;20029;-56
2023/01/19 04:26:16;;;;;;;26.67;16.80;;;;;;;;;;5031407;28;20075;-58
2023/01/19 04:28:42;;;;;;;27.67;17.35;;;;;;;;;;5030832;28;20037;-53
2023/01/19 04:31:08;;;;;;;27.70;16.80;;;;;;;;;;5031052;28;20092;-56
2023/01/19 04:33:34;;;;;;;25.58;15.82;;;;;;;;;;5029644;28;20069;-55
2023/01/19 04:36:00;;;;;;;26.88;15.60;;;;;;;;;;5029813;28;20060;-57
2023/01/19 04:38:26;;;;;;;29.55;17.52;;;;;;;;;;5031094;28;20025;-56
2023/01/19 04:40:53;;;;;;;29.98;18.92;;;;;;;;;;5030943;28;20031;-57
2023/01/19 04:43:19;;;;;;;26.95;19.08;;;;;;;;;;5029214;28;20065;-59
2023/01/19 04:45:46;;;;;;;27.33;21.40;;;;;;;;;;5029741;28;20025;-54
2023/01/19 04:48:12;;;;;;;30.77;22.65;;;;;;;;;;5030844;28;20437;-56
2023/01/19 04:50:40;;;;;;;30.63;25.20;;;;;;;;;;5030940;28;20530;-55
2023/01/19 04:53:06;;;;;;;32.72;27.65;;;;;;;;;;5030717;28;20448;-55
2023/01/19 04:55:32;;;;;;;34.22;29.67;;;;;;;;;;5030351;28;20052;-57
2023/01/19 04:57:58;;;;;;;39.00;32.28;;;;;;;;;;5030460;28;20022;-56
2023/01/19 05:00:25;;;;;;;34.90;31.08;;;;;;;;;;5030353;28;20022;-57
2023/01/19 05:02:51;;;;;;;39.92;34.60;;;;;;;;;;5030387;28;20026;-56
2023/01/19 05:05:17;;;;;;;38.15;34.22;;;;;;;;;;5030331;28;20579;-53
2023/01/19 05:07:44;;;;;;;37.58;33.72;;;;;;;;;;5032705;28;20497;-58
2023/01/19 05:10:10;;;;;;;39.58;35.70;;;;;;;;;;5034205;28;20040;-59
2023/01/19 05:12:36;;;;;;;38.55;34.70;;;;;;;;;;5033915;28;20029;-55
2023/01/19 05:15:03;;;;;;;40.05;36.25;;;;;;;;;;5033700;28;20022;-56
2023/01/19 05:17:29;;;;;;;38.78;34.70;;;;;;;;;;5034000;28;20029;-56
2023/01/19 05:19:55;;;;;;;41.00;36.78;;;;;;;;;;5033812;28;20018;-55
2023/01/19 05:22:21;;;;;;;40.58;36.67;;;;;;;;;;5033959;28;20028;-59
2023/01/19 05:24:47;;;;;;;43.35;39.22;;;;;;;;;;5029170;28;20503;-55
2023/01/19 05:27:13;;;;;;;42.55;38.53;;;;;;;;;;5033749;28;20030;-54
2023/01/19 05:29:39;;;;;;;42.38;38.38;;;;;;;;;;5032432;28;20033;-53
2023/01/19 05:32:05;;;;;;;41.60;37.85;;;;;;;;;;5033850;28;20022;-57
2023/01/19 05:34:31;;;;;;;45.47;41.30;;;;;;;;;;5033420;28;20152;-57
2023/01/19 05:36:57;;;;;;;45.20;41.42;;;;;;;;;;5033750;28;20029;-57
2023/01/19 05:39:24;;;;;;;47.65;43.35;;;;;;;;;;5033664;28;20481;-56
2023/01/19 05:41:50;;;;;;;45.90;41.67;;;;;;;;;;5033764;28;20386;-58
2023/01/19 05:44:16;;;;;;;44.53;40.55;;;;;;;;;;5033210;28;20788;-56
2023/01/19 05:46:42;;;;;;;50.08;45.28;;;;;;;;;;5033502;28;20040;-55
2023/01/19 05:49:08;;;;;;;49.70;44.80;;;;;;;;;;5032155;28;20492;-55
2023/01/19 05:51:37;;;;;;;47.67;43.50;;;;;;;;;;5033297;28;20371;-57
2023/01/19 05:54:06;;;;;;;51.42;46.80;;;;;;;;;;5032937;28;20029;-56
2023/01/19 05:56:32;;;;;;;51.05;46.35;;;;;;;;;;5033449;28;20030;-49
2023/01/19 05:58:58;;;;;;;51.92;47.20;;;;;;;;;;5033122;28;20025;-56
2023/01/19 06:01:25;;;;;;;49.78;45.60;;;;;;;;;;5031609;28;20557;-56
2023/01/19 06:03:51;;;;;;;51.40;46.72;;;;;;;;;;5048163;23;20029;-59
2023/01/19 06:06:17;;;;;;;51.40;46.50;;;;;;;;;;5047953;28;20413;-58
2023/01/19 06:08:43;;;;;;;49.65;45.22;;;;;;;;;;5033428;28;20351;-58
2023/01/19 06:11:09;;;;;;;53.95;49.38;;;;;;;;;;5033178;28;20017;-57
2023/01/19 06:13:35;;;;;;;50.42;46.05;;;;;;;;;;5032880;28;20032;-52
2023/01/19 06:16:02;;;;;;;54.55;49.67;;;;;;;;;;5030718;28;20025;-52
2023/01/19 06:18:28;;;;;;;51.15;46.90;;;;;;;;;;5031153;28;20028;-54
2023/01/19 06:20:57;;;;;;;50.38;46.03;;;;;;;;;;5031149;28;20026;-57
2023/01/19 06:23:27;;;;;;;54.67;49.83;;;;;;;;;;5032285;28;20025;-55
2023/01/19 06:25:53;;;;;;;52.88;48.25;;;;;;;;;;5032367;28;20482;-58
2023/01/19 06:28:19;;;;;;;54.08;49.15;;;;;;;;;;5032502;28;20029;-58
2023/01/19 06:30:48;;;;;;;51.70;47.10;;;;;;;;;;5031908;28;20060;-51
2023/01/19 06:33:14;;;;;;;53.45;48.88;;;;;;;;;;5031561;28;20025;-59
2023/01/19 06:35:42;;;;;;;50.22;45.85;;;;;;;;;;5030727;28;20076;-56
2023/01/19 06:38:08;;;;;;;47.67;43.25;;;;;;;;;;5031651;28;20037;-59
2023/01/19 06:40:34;;;;;;;50.30;45.90;;;;;;;;;;5030746;28;20029;-60
2023/01/19 06:43:00;;;;;;;51.55;47.13;;;;;;;;;;5030715;28;20048;-58
2023/01/19 06:45:26;;;;;;;50.38;46.05;;;;;;;;;;5030521;28;20032;-59
2023/01/19 06:47:52;;;;;;;52.30;47.70;;;;;;;;;;5032058;28;20101;-56
2023/01/19 06:50:18;;;;;;;50.78;46.55;;;;;;;;;;5032047;28;20026;-53
2023/01/19 06:52:44;;;;;;;53.33;48.83;;;;;;;;;;5031813;28;20246;-62
2023/01/19 06:55:12;;;;;;;55.60;50.45;;;;;;;;;;5031174;28;20072;-59
2023/01/19 06:57:39;;;;;;;52.75;48.30;;;;;;;;;;5031684;28;20025;-60
2023/01/19 07:00:07;;;;;;;48.72;44.85;;;;;;;;;;5029902;28;20132;-57
2023/01/19 07:02:36;;;;;;;49.28;45.15;;;;;;;;;;5031586;28;20053;-56
2023/01/19 07:05:02;;;;;;;53.25;48.67;;;;;;;;;;5030399;28;20168;-55
2023/01/19 07:07:28;;;;;;;48.88;44.67;;;;;;;;;;5030944;28;20051;-54
2023/01/19 07:09:54;;;;;;;46.70;42.85;;;;;;;;;;5031398;28;20468;-57
2023/01/19 07:12:21;;;;;;;49.47;45.28;;;;;;;;;;5031491;28;20339;-54
2023/01/19 07:14:48;;;;;;;46.25;42.60;;;;;;;;;;5030994;28;20170;-61
2023/01/19 07:17:14;;;;;;;45.50;41.72;;;;;;;;;;5030980;28;20029;-58
2023/01/19 07:19:40;;;;;;;47.05;43.10;;;;;;;;;;5029545;28;20474;-61
2023/01/19 07:22:06;;;;;;;44.22;40.53;;;;;;;;;;5029102;28;20030;-60
2023/01/19 07:24:33;;;;;;;46.83;42.70;;;;;;;;;;5028762;28;20021;-60
2023/01/19 07:26:59;;;;;;;45.47;41.47;;;;;;;;;;5030906;28;20423;-58
2023/01/19 07:29:26;;;;;;;45.15;41.20;;;;;;;;;;5031109;28;20025;-61
2023/01/19 07:31:53;;;;;;;43.92;40.13;;;;;;;;;;5031983;28;20049;-60
2023/01/19 07:34:20;;;;;;;48.58;43.95;;;;;;;;;;5031104;28;20100;-56
2023/01/19 07:36:46;;;;;;;48.08;44.08;;;;;;;;;;5030855;28;20117;-60
2023/01/19 07:39:12;;;;;;;48.40;43.92;;;;;;;;;;5029368;28;20056;-62
2023/01/19 07:41:38;;;;;;;46.90;42.55;;;;;;;;;;5029410;28;20027;-60
2023/01/19 07:44:04;;;;;;;52.25;47.55;;;;;;;;;;5030242;28;20053;-61
2023/01/19 07:46:30;;;;;;;48.42;44.13;;;;;;;;;;5031477;28;20096;-63
2023/01/19 07:48:56;;;;;;;47.22;43.22;;;;;;;;;;5029520;28;20041;-58
2023/01/19 07:51:22;;;;;;;49.03;44.70;;;;;;;;;;5030731;28;20014;-61
2023/01/19 07:53:51;;;;;;;51.70;47.13;;;;;;;;;;5030007;28;20072;-57
2023/01/19 07:56:17;;;;;;;50.15;45.70;;;;;;;;;;5029475;28;20040;-51
2023/01/19 07:58:43;;;;;;;49.03;44.42;;;;;;;;;;5030250;28;20025;-60
2023/01/19 08:01:10;;;;;;;48.47;44.03;;;;;;;;;;5030668;28;20079;-52
2023/01/19 08:03:36;;;;;;;50.42;46.20;;;;;;;;;;5030587;28;20119;-55
2023/01/19 08:06:04;;;;;;;50.72;45.40;;;;;;;;;;5031160;28;20610;-59
2023/01/19 08:08:30;;;;;;;48.45;44.15;;;;;;;;;;5031152;28;20017;-56
2023/01/19 08:10:56;;;;;;;49.38;44.50;;;;;;;;;;5029847;28;20021;-59
2023/01/19 08:13:22;;;;;;;49.13;44.85;;;;;;;;;;5030766;28;20049;-57
2023/01/19 08:15:50;;;;;;;50.70;46.15;;;;;;;;;;5029465;28;20399;-54
2023/01/19 08:18:16;;;;;;;51.70;47.10;;;;;;;;;;5030386;28;20033;-52
2023/01/19 08:20:42;;;;;;;50.75;46.15;;;;;;;;;;5030671;28;20029;-54
2023/01/19 08:23:09;;;;;;;51.80;47.03;;;;;;;;;;5028948;28;20061;-58
2023/01/19 08:25:36;;;;;;;52.10;47.25;;;;;;;;;;5031112;28;20072;-54
2023/01/19 08:28:03;;;;;;;53.67;48.67;;;;;;;;;;5029563;28;20025;-52
2023/01/19 08:30:29;;;;;;;53.28;48.33;;;;;;;;;;5030786;28;20264;-57
2023/01/19 08:33:02;;;;;;;51.38;46.55;;;;;;;;;;5030785;28;20509;-57
2023/01/19 08:35:32;;;;;;;52.15;47.35;;;;;;;;;;5030282;28;20493;-56
2023/01/19 08:38:00;;;;;;;53.42;48.33;;;;;;;;;;5029220;28;20068;-55
2023/01/19 08:40:32;;;;;;;52.83;48.00;;;;;;;;;;5030568;28;20025;-57
2023/01/19 08:43:03;;;;;;;52.35;47.45;;;;;;;;;;5032837;28;20068;-55
2023/01/19 08:45:30;;;;;;;52.75;47.90;;;;;;;;;;5034518;28;20029;-51
2023/01/19 08:47:57;;;;;;;51.17;46.38;;;;;;;;;;5034372;28;20500;-57
2023/01/19 08:50:24;;;;;;;48.22;43.63;;;;;;;;;;5032886;28;20400;-56
2023/01/19 08:52:50;;;;;;;53.17;48.22;;;;;;;;;;5034209;28;20021;-51
2023/01/19 08:55:16;;;;;;;52.45;47.28;;;;;;;;;;5034283;28;20021;-55
2023/01/19 08:57:42;;;;;;;52.97;47.72;;;;;;;;;;5032764;28;20083;-56
2023/01/19 09:00:09;;;;;;;53.35;48.35;;;;;;;;;;5032833;28;20033;-52
2023/01/19 09:02:36;;;;;;;51.33;46.45;;;;;;;;;;5034041;28;20025;-55
2023/01/19 09:05:03;;;;;;;49.30;44.83;;;;;;;;;;5033738;28;20033;-56
2023/01/19 09:07:30;;;;;;;52.05;47.13;;;;;;;;;;5032822;28;20540;-59
2023/01/19 09:09:56;;;;;;;49.05;44.78;;;;;;;;;;5034280;28;20025;-60
2023/01/19 09:12:22;;;;;;;49.80;45.22;;;;;;;;;;5034132;28;20075;-59
2023/01/19 09:14:48;;;;;;;46.95;42.78;;;;;;;;;;5032859;28;20025;-57
2023/01/19 09:17:14;;;;;;;48.67;44.35;;;;;;;;;;5034382;28;20180;-60
2023/01/19 09:19:40;;;;;;;49.05;44.30;;;;;;;;;;5033947;28;20512;-60
2023/01/19 09:22:06;;;;;;;45.83;42.13;;;;;;;;;;5033872;28;20029;-58
2023/01/19 09:24:33;;;;;;;47.70;43.60;;;;;;;;;;5033675;28;20098;-60
2023/01/19 09:27:00;;;;;;;45.72;41.50;;;;;;;;;;5032412;28;20022;-58
2023/01/19 09:29:26;;;;;;;44.95;40.67;;;;;;;;;;5034076;28;20022;-57
2023/01/19 09:31:52;;;;;;;45.40;41.42;;;;;;;;;;5032721;28;20045;-59
2023/01/19 09:34:18;;;;;;;46.60;42.13;;;;;;;;;;5033759;28;20080;-58
2023/01/19 09:36:46;;;;;;;44.72;40.92;;;;;;;;;;5033244;28;20037;-54
2023/01/19 09:39:12;;;;;;;43.73;39.73;;;;;;;;;;5033405;28;20084;-57
2023/01/19 09:41:38;;;;;;;45.30;41.40;;;;;;;;;;5032342;28;20332;-59
2023/01/19 09:44:05;;;;;;;44.90;40.90;;;;;;;;;;5033353;28;20035;-57
2023/01/19 09:46:41;;;;;;;46.95;42.70;;;;;;;;;;5033718;28;20018;-57
2023/01/19 09:49:12;;;;;;;44.78;40.95;;;;;;;;;;5032648;28;20017;-58
2023/01/19 09:51:40;;;;;;;45.17;41.00;;;;;;;;;;5033337;28;20020;-58
2023/01/19 09:54:11;;;;;;;46.25;41.85;;;;;;;;;;5032344;28;20049;-52
2023/01/19 09:56:38;;;;;;;44.53;40.33;;;;;;;;;;5033728;28;20112;-55
2023/01/19 09:59:24;;;;;;;43.55;39.15;;;;;;;;;;5033397;28;20047;-55
2023/01/19 10:02:02;;;;;;;43.80;39.80;;;;;;;;;;5032112;28;20029;-52
2023/01/19 10:04:28;;;;;;;;;;;;;;;;;;5032072;28;20079;-56
2023/01/19 10:07:15;;;;;;;42.92;37.08;;;;;;;;;;5032332;28;19909;-52
2023/01/19 10:09:41;;;;;;;44.33;39.70;;;;;;;;;;5033346;28;20168;-52
2023/01/19 10:12:10;;;;;;;42.30;38.45;;;;;;;;;;5032355;28;20040;-54
2023/01/19 10:14:39;;;;;;;43.08;38.65;;;;;;;;;;5032984;28;20095;-59
2023/01/19 10:17:05;;;;;;;40.60;36.95;;;;;;;;;;5033247;28;20029;-53
2023/01/19 10:19:37;;;;;;;42.90;38.72;;;;;;;;;;5032124;28;20053;-56
2023/01/19 10:22:23;;;;;;;43.05;38.05;;;;;;;;;;5032352;28;20521;-52
2023/01/19 10:24:55;;;;;;;40.75;36.80;;;;;;;;;;5031548;28;20029;-59
2023/01/19 10:27:28;;;;;;;42.30;38.17;;;;;;;;;;5033315;28;20017;-58
2023/01/19 10:29:54;;;;;;;41.95;38.13;;;;;;;;;;5033123;28;20049;-56
2023/01/19 10:32:25;;;;;;;39.40;35.50;;;;;;;;;;5032842;28;20041;-51
2023/01/19 10:34:51;;;;;;;40.80;36.72;;;;;;;;;;5032588;28;20068;-56
2023/01/19 10:37:17;;;;;;;39.95;36.05;;;;;;;;;;5032463;28;20549;-56
2023/01/19 10:39:51;;;;;;;39.45;35.55;;;;;;;;;;5032725;28;20212;-58
2023/01/19 10:42:17;;;;;;;39.45;35.53;;;;;;;;;;5032749;28;20022;-57
2023/01/19 10:44:44;;;;;;;39.55;35.38;;;;;;;;;;5030926;28;20319;-57
2023/01/19 10:47:15;;;;;;;38.10;34.28;;;;;;;;;;5031188;28;20022;-56
2023/01/19 10:49:41;;;;;;;42.10;38.00;;;;;;;;;;4679036;28;9999914;-55
2023/01/19 10:52:28;;;;;;;38.03;34.53;;;;;;;;;;5028410;28;20026;-59
2023/01/19 10:54:54;;;;;;;39.45;35.65;;;;;;;;;;5029063;28;20059;-57
2023/01/19 10:57:42;;;;;;;40.95;36.28;;;;;;;;;;5028174;28;20026;-56
2023/01/19 11:00:36;;;;;;;38.60;34.65;;;;;;;;;;5030232;28;20390;-56
2023/01/19 11:03:03;;;;;;;39.53;35.45;;;;;;;;;;5027234;28;20037;-57
2023/01/19 11:05:30;;;;;;;39.88;35.92;;;;;;;;;;5029432;28;20030;-53
2023/01/19 11:07:56;;;;;;;35.83;32.47;;;;;;;;;;5029513;28;20446;-60
2023/01/19 11:10:24;;;;;;;40.55;36.42;;;;;;;;;;5029250;28;20033;-60
2023/01/19 11:13:02;;;;;;;40.00;35.30;;;;;;;;;;5027368;28;20175;-65
2023/01/19 11:15:29;;;;;;;41.10;34.78;;;;;;;;;;5027838;28;20021;-57
2023/01/19 11:17:55;;;;;;;39.15;35.50;;;;;;;;;;5027238;28;20034;-56
2023/01/19 11:20:26;;;;;;;34.88;31.52;;;;;;;;;;5028843;28;20026;-59
2023/01/19 11:23:05;;;;;;;37.35;32.28;;;;;;;;;;5028790;28;20029;-57
2023/01/19 11:25:32;;;;;;;40.70;32.90;;;;;;;;;;5028962;28;20128;-56
2023/01/19 11:27:59;;;;;;;46.47;34.30;;;;;;;;;;5027648;28;20056;-56
2023/01/19 11:30:25;;;;;;;39.17;35.00;;;;;;;;;;5028846;28;20084;-58
2023/01/19 11:32:52;;;;;;;35.45;31.73;;;;;;;;;;5027279;28;20517;-63
2023/01/19 11:35:32;;;;;;;37.92;33.95;;;;;;;;;;5028582;28;20034;-62
2023/01/19 11:38:17;;;;;;;43.00;33.00;;;;;;;;;;5028687;28;20045;-57
2023/01/19 11:40:48;;;;;;;37.65;33.65;;;;;;;;;;5027469;28;20045;-55
2023/01/19 11:43:14;;;;;;;35.13;31.35;;;;;;;;;;5026999;28;20107;-60
2023/01/19 11:45:40;;;;;;;32.65;29.38;;;;;;;;;;5027240;28;20030;-60
2023/01/19 11:48:07;;;;;;;35.22;30.77;;;;;;;;;;5028515;28;20093;-55
2023/01/19 11:50:36;;;;;;;38.13;33.95;;;;;;;;;;5028155;28;20031;-58
2023/01/19 11:53:17;;;;;;;35.10;31.40;;;;;;;;;;4680900;28;10000427;-60
2023/01/19 11:55:55;;;;;;;36.42;32.45;;;;;;;;;;5028391;28;20164;-60
2023/01/19 11:58:22;;;;;;;33.95;26.38;;;;;;;;;;5027354;28;20026;-62
2023/01/19 12:00:51;;;;;;;33.58;26.75;;;;;;;;;;5028514;28;20116;-60
2023/01/19 12:03:35;;;;;;;27.23;23.77;;;;;;;;;;5028126;28;20116;-58
2023/01/19 12:06:04;;;;;;;30.50;23.13;;;;;;;;;;5029232;28;20121;-62
2023/01/19 12:08:32;;;;;;;24.35;20.77;;;;;;;;;;5028508;28;20026;-58
2023/01/19 12:10:59;;;;;;;30.85;22.95;;;;;;;;;;5026959;28;20025;-61
2023/01/19 12:13:26;;;;;;;27.15;22.73;;;;;;;;;;5027856;28;20037;-57
2023/01/19 12:15:56;;;;;;;28.77;22.73;;;;;;;;;;5027569;28;20124;-59
2023/01/19 12:18:24;;;;;;;26.98;20.10;;;;;;;;;;5031774;28;20047;-62
2023/01/19 12:20:51;;;;;;;27.90;19.87;;;;;;;;;;5031572;28;20026;-60
2023/01/19 12:23:23;;;;;;;25.20;19.38;;;;;;;;;;5031166;28;20029;-61
2023/01/19 12:25:52;;;;;;;27.35;20.67;;;;;;;;;;5031094;28;20040;-61
2023/01/19 12:28:22;;;;;;;26.15;19.92;;;;;;;;;;5031130;28;20112;-61
2023/01/19 12:30:50;;;;;;;27.60;20.08;;;;;;;;;;5032447;28;20029;-62
2023/01/19 12:33:27;;;;;;;29.15;18.70;;;;;;;;;;5031703;28;20088;-62
2023/01/19 12:36:02;;;;;;;25.05;19.45;;;;;;;;;;5032362;28;20053;-62
2023/01/19 12:38:51;;;;;;;26.50;19.67;;;;;;;;;;5032550;28;20029;-55
2023/01/19 12:41:25;;;;;;;30.38;21.17;;;;;;;;;;5032628;28;20095;-55
2023/01/19 12:44:10;;;;;;;29.63;21.38;;;;;;;;;;5032308;28;20036;-58
2023/01/19 12:46:50;;;;;;;28.35;22.10;;;;;;;;;;5031387;28;20022;-60
2023/01/19 12:49:19;;;;;;;35.67;23.33;;;;;;;;;;5032063;28;20709;-62
2023/01/19 12:51:45;;;;;;;28.95;21.45;;;;;;;;;;5030435;28;20021;-58
2023/01/19 12:54:22;;;;;;;32.10;21.75;;;;;;;;;;5032120;28;20033;-63
2023/01/19 12:56:49;;;;;;;27.60;21.02;;;;;;;;;;5031847;28;20535;-62
2023/01/19 12:59:24;;;;;;;31.13;22.30;;;;;;;;;;5030513;28;20731;-61
2023/01/19 13:02:08;;;;;;;27.30;21.50;;;;;;;;;;5031618;28;20545;-60
2023/01/19 13:04:34;;;;;;;30.00;22.05;;;;;;;;;;5031100;28;20668;-61
2023/01/19 13:07:04;;;;;;;37.35;24.20;;;;;;;;;;5031430;28;20056;-59
2023/01/19 13:09:34;;;;;;;27.88;20.92;;;;;;;;;;5030457;28;20032;-61
2023/01/19 13:12:35;;;;;;;31.55;21.98;;;;;;;;;;5031053;28;20438;-61
2023/01/19 13:15:20;;;;;;;32.50;22.20;;;;;;;;;;4969189;28;20027;-62
2023/01/19 13:17:49;;;;;;;30.25;22.40;;;;;;;;;;5026591;28;20440;-61
2023/01/19 13:20:33;;;;;;;29.90;22.20;;;;;;;;;;5031718;28;20084;-61
2023/01/19 13:23:02;;;;;;;26.27;20.60;;;;;;;;;;5030469;28;20100;-60
2023/01/19 13:25:30;;;;;;;29.75;19.98;;;;;;;;;;5030862;28;20108;-62
2023/01/19 13:27:56;;;;;;;29.98;19.98;;;;;;;;;;5029026;28;20025;-63
2023/01/19 13:30:25;;;;;;;32.28;19.42;;;;;;;;;;5031263;28;20082;-58
2023/01/19 13:32:52;;;;;;;31.52;21.75;;;;;;;;;;5031030;28;20508;-62
2023/01/19 13:35:19;;;;;;;27.00;19.95;;;;;;;;;;5029345;28;20025;-60
2023/01/19 13:37:46;;;;;;;28.52;19.20;;;;;;;;;;5030891;28;20482;-60
2023/01/19 13:40:23;;;;;;;30.40;18.95;;;;;;;;;;5027122;28;20393;-61
2023/01/19 13:42:50;;;;;;;29.50;18.90;;;;;;;;;;5032259;28;20026;-57
2023/01/19 13:45:15;;;;;;;35.13;19.83;;;;;;;;;;5032199;28;20113;-59
2023/01/19 13:47:43;;;;;;;29.38;18.02;;;;;;;;;;5033968;28;20109;-59
2023/01/19 13:50:18;;;;;;;30.83;18.52;;;;;;;;;;5033914;28;20450;-57
2023/01/19 13:52:44;;;;;;;29.33;18.02;;;;;;;;;;5033129;28;20021;-61
2023/01/19 13:55:13;;;;;;;26.20;19.27;;;;;;;;;;5033102;28;20092;-59
2023/01/19 13:57:47;;;;;;;27.38;18.20;;;;;;;;;;5031850;28;20113;-61
2023/01/19 14:00:22;;;;;;;26.65;17.73;;;;;;;;;;5032989;28;20109;-61
2023/01/19 14:02:51;;;;;;;38.15;18.20;;;;;;;;;;5033252;28;20521;-60
2023/01/19 14:05:26;;;;;;;25.55;17.10;;;;;;;;;;5033379;28;20079;-63
2023/01/19 14:08:05;;;;;;;27.67;19.02;;;;;;;;;;5034378;28;20071;-60
2023/01/19 14:10:31;;;;;;;35.80;18.35;;;;;;;;;;5034843;28;20049;-60
2023/01/19 14:12:58;;;;;;;24.33;16.67;;;;;;;;;;5034281;28;20029;-61
2023/01/19 14:15:24;;;;;;;30.40;19.48;;;;;;;;;;5032618;28;20371;-63
2023/01/19 14:18:07;;;;;;;25.80;18.40;;;;;;;;;;5033485;28;20169;-63
2023/01/19 14:20:35;;;;;;;29.73;19.90;;;;;;;;;;5031661;28;20040;-60
2023/01/19 14:23:02;;;;;;;27.67;18.30;;;;;;;;;;5030923;28;20034;-62
2023/01/19 14:25:28;;;;;;;29.80;16.35;;;;;;;;;;5032657;28;20417;-64
2023/01/19 14:28:12;;;;;;;26.90;15.65;;;;;;;;;;5032279;28;20025;-63
2023/01/19 14:30:38;;;;;;;29.20;17.15;;;;;;;;;;5032624;28;20022;-61
2023/01/19 14:33:05;;;;;;;33.35;17.83;;;;;;;;;;5032540;28;20589;-61